createdAt,value
2022-08-23T00:00:10.975Z,15.17
2022-08-23T00:01:04.387Z,15.06
2022-08-23T00:02:04.814Z,15.06
2022-08-23T00:03:04.472Z,15.06
2022-08-23T00:04:04.394Z,15.06
2022-08-23T00:05:08.589Z,15.17
2022-08-23T00:06:04.398Z,15.06
2022-08-23T00:07:04.399Z,15.06
2022-08-23T00:08:04.403Z,15.06
2022-08-23T00:09:04.399Z,14.78
2022-08-23T00:10:04.396Z,14.61
2022-08-23T00:11:04.406Z,14.78
2022-08-23T00:12:04.400Z,14.89
2022-08-23T00:13:04.400Z,15.06
2022-08-23T00:14:04.398Z,14.61
2022-08-23T00:15:04.402Z,14.78
2022-08-23T00:16:04.394Z,14.89
2022-08-23T00:17:04.402Z,14.89
2022-08-23T00:18:04.395Z,14.78
2022-08-23T00:19:04.399Z,14.78
2022-08-23T00:20:04.407Z,14.78
2022-08-23T00:21:04.405Z,14.78
2022-08-23T00:22:04.405Z,14.44
2022-08-23T00:23:04.408Z,14.78
2022-08-23T00:24:04.406Z,14.78
2022-08-23T00:25:04.401Z,14.61
2022-08-23T00:26:04.408Z,14.78
2022-08-23T00:27:04.412Z,14.78
2022-08-23T00:28:04.418Z,14.78
2022-08-23T00:29:04.410Z,14.78
2022-08-23T00:30:04.410Z,14.78
2022-08-23T00:31:04.406Z,14.78
2022-08-23T00:32:04.409Z,14.61
2022-08-23T00:33:04.414Z,14.78
2022-08-23T00:34:04.407Z,14.61
2022-08-23T00:35:04.412Z,14.61
2022-08-23T00:36:04.423Z,14.78
2022-08-23T00:37:04.416Z,14.78
2022-08-23T00:38:30.432Z,14.78
2022-08-23T00:39:04.423Z,14.78
2022-08-23T00:40:04.502Z,14.61
2022-08-23T00:41:04.406Z,14.61
2022-08-23T00:42:04.421Z,14.61
2022-08-23T00:43:06.028Z,14.61
2022-08-23T00:44:04.406Z,14.78
2022-08-23T00:45:04.410Z,14.78
2022-08-23T00:46:04.419Z,14.61
2022-08-23T00:47:04.425Z,14.78
2022-08-23T00:48:04.407Z,14.78
2022-08-23T00:49:04.411Z,14.44
2022-08-23T00:50:04.411Z,14.78
2022-08-23T00:51:04.408Z,14.78
2022-08-23T00:52:04.411Z,14.78
2022-08-23T00:53:04.411Z,14.78
2022-08-23T00:54:04.420Z,14.61
2022-08-23T00:55:04.411Z,14.28
2022-08-23T00:56:04.424Z,14.61
2022-08-23T00:57:04.410Z,14.78
2022-08-23T00:58:04.460Z,14.78
2022-08-23T00:59:04.416Z,14.78
2022-08-23T01:00:04.413Z,14.44
2022-08-23T01:01:04.408Z,14.61
2022-08-23T01:02:04.513Z,14.78
2022-08-23T01:03:04.416Z,14.78
2022-08-23T01:04:05.200Z,14.28
2022-08-23T01:05:04.415Z,14.61
2022-08-23T01:06:04.413Z,14.61
2022-08-23T01:07:04.419Z,14.61
2022-08-23T01:08:04.421Z,14.61
2022-08-23T01:09:04.420Z,14.78
2022-08-23T01:10:04.415Z,14.78
2022-08-23T01:11:04.414Z,14.61
2022-08-23T01:12:04.417Z,14.78
2022-08-23T01:13:04.412Z,14.44
2022-08-23T01:14:04.431Z,14.78
2022-08-23T01:15:04.424Z,14.78
2022-08-23T01:16:04.420Z,14.78
2022-08-23T01:17:04.418Z,14.78
2022-08-23T01:18:04.419Z,14.28
2022-08-23T01:19:04.420Z,14.78
2022-08-23T01:20:04.419Z,14.61
2022-08-23T01:21:04.417Z,14.44
2022-08-23T01:22:04.414Z,14.78
2022-08-23T01:23:04.412Z,14.44
2022-08-23T01:24:04.415Z,14.44
2022-08-23T01:25:06.729Z,14.44
2022-08-23T01:26:04.421Z,14.28
2022-08-23T01:27:04.416Z,14.28
2022-08-23T01:28:04.427Z,14.28
2022-08-23T01:29:04.435Z,14.28
2022-08-23T01:30:04.418Z,14.28
2022-08-23T01:31:06.600Z,14.28
2022-08-23T01:32:04.420Z,14.44
2022-08-23T01:33:04.418Z,14.44
2022-08-23T01:34:04.426Z,14.28
2022-08-23T01:35:04.425Z,14.44
2022-08-23T01:36:04.427Z,14.28
2022-08-23T01:37:04.426Z,14.44
2022-08-23T01:38:04.426Z,14.28
2022-08-23T01:39:04.425Z,14.28
2022-08-23T01:40:04.486Z,14.28
2022-08-23T01:41:04.425Z,14.11
2022-08-23T01:42:07.435Z,14.11
2022-08-23T01:43:04.426Z,14.28
2022-08-23T01:44:04.430Z,14
2022-08-23T01:45:04.430Z,14
2022-08-23T01:46:04.433Z,14.28
2022-08-23T01:47:04.427Z,14.11
2022-08-23T01:48:04.437Z,14
2022-08-23T01:49:07.699Z,14.11
2022-08-23T01:50:04.439Z,14.11
2022-08-23T01:51:04.430Z,14.11
2022-08-23T01:52:04.430Z,14.28
2022-08-23T01:53:04.497Z,14.11
2022-08-23T01:54:04.433Z,14.11
2022-08-23T01:55:04.436Z,14.28
2022-08-23T01:56:04.436Z,14.28
2022-08-23T01:57:04.437Z,14.44
2022-08-23T01:58:04.438Z,14.28
2022-08-23T01:59:04.439Z,14.61
2022-08-23T02:00:04.447Z,14.28
2022-08-23T02:01:04.443Z,14.28
2022-08-23T02:02:04.482Z,14.28
2022-08-23T02:03:04.449Z,13.83
2022-08-23T02:04:05.085Z,14.11
2022-08-23T02:05:04.449Z,14.28
2022-08-23T02:06:04.444Z,14.28
2022-08-23T02:07:04.449Z,14.28
2022-08-23T02:08:04.446Z,14.28
2022-08-23T02:09:04.468Z,14.11
2022-08-23T02:10:04.447Z,14.11
2022-08-23T02:11:04.454Z,14.28
2022-08-23T02:12:04.450Z,14.11
2022-08-23T02:13:04.463Z,14.28
2022-08-23T02:14:04.447Z,14.11
2022-08-23T02:15:04.454Z,13.83
2022-08-23T02:16:04.448Z,14
2022-08-23T02:17:05.020Z,14
2022-08-23T02:18:04.451Z,14
2022-08-23T02:19:04.453Z,13.83
2022-08-23T02:20:04.456Z,14.11
2022-08-23T02:21:04.464Z,13.83
2022-08-23T02:22:04.456Z,14.11
2022-08-23T02:23:04.452Z,13.83
2022-08-23T02:24:04.483Z,13.83
2022-08-23T02:25:04.459Z,14.11
2022-08-23T02:26:04.457Z,14.11
2022-08-23T02:27:04.467Z,14
2022-08-23T02:28:04.458Z,14
2022-08-23T02:29:04.459Z,14
2022-08-23T02:30:04.476Z,14.11
2022-08-23T02:31:04.484Z,14.11
2022-08-23T02:32:04.459Z,14.11
2022-08-23T02:33:04.451Z,14.11
2022-08-23T02:34:04.464Z,14.11
2022-08-23T02:35:05.892Z,14.11
2022-08-23T02:36:04.463Z,14.11
2022-08-23T02:37:04.470Z,14.11
2022-08-23T02:38:04.467Z,14.11
2022-08-23T02:39:04.465Z,14.11
2022-08-23T02:40:04.524Z,14.28
2022-08-23T02:41:04.463Z,14.28
2022-08-23T02:42:04.470Z,14
2022-08-23T02:43:04.469Z,14.28
2022-08-23T02:44:04.472Z,14.28
2022-08-23T02:45:04.477Z,14.28
2022-08-23T02:46:04.478Z,14
2022-08-23T02:47:04.477Z,14.28
2022-08-23T02:48:04.476Z,14.28
2022-08-23T02:49:04.470Z,14.11
2022-08-23T02:50:04.475Z,14.11
2022-08-23T02:51:04.499Z,14.28
2022-08-23T02:52:04.475Z,14.28
2022-08-23T02:53:04.472Z,14.11
2022-08-23T02:54:04.477Z,14
2022-08-23T02:55:04.473Z,14.11
2022-08-23T02:56:04.483Z,14.11
2022-08-23T02:57:04.477Z,13.83
2022-08-23T02:58:04.474Z,13.83
2022-08-23T02:59:04.483Z,13.83
2022-08-23T03:00:04.476Z,14
2022-08-23T03:01:04.484Z,13.67
2022-08-23T03:02:04.522Z,14
2022-08-23T03:03:04.477Z,13.83
2022-08-23T03:04:04.480Z,13.83
2022-08-23T03:05:04.487Z,13.83
2022-08-23T03:06:25.107Z,13.83
2022-08-23T03:07:04.503Z,13.83
2022-08-23T03:08:04.473Z,13.83
2022-08-23T03:09:04.489Z,14
2022-08-23T03:10:04.476Z,14
2022-08-23T03:11:08.095Z,13.83
2022-08-23T03:12:04.483Z,13.83
2022-08-23T03:13:04.480Z,13.83
2022-08-23T03:14:04.486Z,13.83
2022-08-23T03:15:04.491Z,13.83
2022-08-23T03:16:04.488Z,14
2022-08-23T03:17:04.489Z,14
2022-08-23T03:18:04.482Z,13.83
2022-08-23T03:19:04.482Z,13.83
2022-08-23T03:20:04.478Z,13.83
2022-08-23T03:21:04.489Z,14.11
2022-08-23T03:22:04.483Z,14.11
2022-08-23T03:23:04.483Z,14
2022-08-23T03:24:08.190Z,14.11
2022-08-23T03:25:04.479Z,14
2022-08-23T03:26:04.486Z,14.11
2022-08-23T03:27:04.489Z,14.28
2022-08-23T03:28:04.481Z,14
2022-08-23T03:29:04.493Z,14
2022-08-23T03:30:04.481Z,13.67
2022-08-23T03:31:04.503Z,13.83
2022-08-23T03:32:04.481Z,14
2022-08-23T03:33:04.492Z,13.83
2022-08-23T03:34:04.486Z,13.83
2022-08-23T03:35:04.493Z,13.83
2022-08-23T03:36:04.494Z,14
2022-08-23T03:37:04.494Z,14
2022-08-23T03:38:04.492Z,13.83
2022-08-23T03:39:04.497Z,13.67
2022-08-23T03:40:04.560Z,14.28
2022-08-23T03:41:04.499Z,14
2022-08-23T03:42:04.503Z,13.67
2022-08-23T03:43:04.501Z,13.83
2022-08-23T03:44:04.504Z,13.83
2022-08-23T03:45:04.505Z,13.83
2022-08-23T03:46:04.505Z,13.39
2022-08-23T03:47:04.503Z,13.56
2022-08-23T03:48:04.503Z,13.39
2022-08-23T03:49:04.520Z,13.39
2022-08-23T03:50:04.509Z,13.22
2022-08-23T03:51:04.513Z,13.39
2022-08-23T03:52:04.506Z,13.56
2022-08-23T03:53:04.523Z,13.56
2022-08-23T03:54:04.513Z,13.39
2022-08-23T03:55:04.517Z,13.39
2022-08-23T03:56:04.509Z,13.56
2022-08-23T03:57:04.512Z,13.39
2022-08-23T03:58:04.511Z,13.39
2022-08-23T03:59:04.518Z,13.22
2022-08-23T04:00:04.506Z,13.39
2022-08-23T04:01:04.505Z,13.39
2022-08-23T04:02:04.564Z,13.39
2022-08-23T04:03:04.519Z,13.39
2022-08-23T04:04:04.524Z,13.39
2022-08-23T04:05:04.515Z,13.39
2022-08-23T04:06:04.525Z,13.39
2022-08-23T04:07:04.515Z,13.11
2022-08-23T04:08:04.519Z,13.22
2022-08-23T04:09:04.518Z,13.22
2022-08-23T04:10:04.528Z,13.22
2022-08-23T04:11:04.520Z,13.22
2022-08-23T04:12:04.527Z,13.39
2022-08-23T04:13:04.527Z,13.39
2022-08-23T04:14:04.522Z,13.56
2022-08-23T04:15:04.527Z,13.39
2022-08-23T04:16:04.524Z,13.67
2022-08-23T04:17:04.536Z,13.67
2022-08-23T04:18:04.536Z,13.67
2022-08-23T04:19:04.526Z,13.39
2022-08-23T04:20:04.534Z,13.83
2022-08-23T04:21:04.531Z,13.83
2022-08-23T04:22:04.531Z,13.67
2022-08-23T04:23:04.527Z,13.83
2022-08-23T04:24:04.528Z,13.83
2022-08-23T04:25:04.539Z,13.83
2022-08-23T04:26:04.535Z,14
2022-08-23T04:27:04.532Z,13.83
2022-08-23T04:28:04.541Z,13.83
2022-08-23T04:29:04.541Z,13.83
2022-08-23T04:30:04.544Z,14
2022-08-23T04:31:04.535Z,13.67
2022-08-23T04:32:05.403Z,13.83
2022-08-23T04:33:04.538Z,13.83
2022-08-23T04:34:04.545Z,13.83
2022-08-23T04:35:04.563Z,13.83
2022-08-23T04:36:04.542Z,14.11
2022-08-23T04:37:04.547Z,13.83
2022-08-23T04:38:04.552Z,14
2022-08-23T04:39:04.546Z,13.83
2022-08-23T04:40:04.579Z,14
2022-08-23T04:41:04.543Z,14
2022-08-23T04:42:04.551Z,14
2022-08-23T04:43:04.549Z,13.83
2022-08-23T04:44:04.560Z,13.83
2022-08-23T04:45:04.558Z,13.67
2022-08-23T04:46:04.561Z,13.67
2022-08-23T04:47:04.558Z,13.56
2022-08-23T04:48:04.560Z,13.56
2022-08-23T04:49:04.561Z,13.56
2022-08-23T04:50:04.560Z,13.56
2022-08-23T04:51:04.557Z,13.67
2022-08-23T04:52:04.559Z,13.83
2022-08-23T04:53:04.551Z,13.83
2022-08-23T04:54:04.561Z,13.67
2022-08-23T04:55:04.572Z,13.83
2022-08-23T04:56:04.580Z,13.83
2022-08-23T04:57:04.557Z,13.83
2022-08-23T04:58:04.566Z,13.83
2022-08-23T04:59:04.557Z,13.83
2022-08-23T05:00:04.566Z,14
2022-08-23T05:01:04.612Z,13.83
2022-08-23T05:02:04.578Z,13.56
2022-08-23T05:03:04.566Z,13.83
2022-08-23T05:04:04.566Z,13.67
2022-08-23T05:05:04.568Z,13.83
2022-08-23T05:06:04.563Z,14
2022-08-23T05:07:04.570Z,13.83
2022-08-23T05:08:04.567Z,14
2022-08-23T05:09:04.571Z,14.11
2022-08-23T05:10:04.561Z,14.28
2022-08-23T05:11:04.568Z,13.83
2022-08-23T05:12:04.577Z,14.11
2022-08-23T05:13:04.566Z,14
2022-08-23T05:14:04.582Z,14.11
2022-08-23T05:15:04.577Z,14
2022-08-23T05:16:04.578Z,14
2022-08-23T05:17:04.575Z,14
2022-08-23T05:18:04.582Z,13.83
2022-08-23T05:19:04.591Z,14
2022-08-23T05:20:04.577Z,13.83
2022-08-23T05:21:04.586Z,14.11
2022-08-23T05:22:04.579Z,13.83
2022-08-23T05:23:04.574Z,13.83
2022-08-23T05:24:04.573Z,13.83
2022-08-23T05:25:04.580Z,14.11
2022-08-23T05:26:04.587Z,14.28
2022-08-23T05:27:04.583Z,14.28
2022-08-23T05:28:04.583Z,14.28
2022-08-23T05:29:04.575Z,14.28
2022-08-23T05:30:04.589Z,14.28
2022-08-23T05:31:04.583Z,14
2022-08-23T05:32:04.584Z,14.11
2022-08-23T05:33:04.577Z,14.28
2022-08-23T05:34:04.581Z,14
2022-08-23T05:35:04.580Z,14.11
2022-08-23T05:36:04.584Z,14.11
2022-08-23T05:37:04.581Z,14
2022-08-23T05:38:04.585Z,14.11
2022-08-23T05:39:04.583Z,14.11
2022-08-23T05:40:04.648Z,13.83
2022-08-23T05:41:05.200Z,14.28
2022-08-23T05:42:04.592Z,14.28
2022-08-23T05:43:04.587Z,14.11
2022-08-23T05:44:04.590Z,14.78
2022-08-23T05:45:06.023Z,14.28
2022-08-23T05:46:04.588Z,14.44
2022-08-23T05:47:04.593Z,14.78
2022-08-23T05:48:04.594Z,14.61
2022-08-23T05:49:04.597Z,14.61
2022-08-23T05:50:04.598Z,14.78
2022-08-23T05:51:04.593Z,14.78
2022-08-23T05:52:04.599Z,14.89
2022-08-23T05:53:04.596Z,14.44
2022-08-23T05:54:04.599Z,14.89
2022-08-23T05:55:04.595Z,15.17
2022-08-23T05:56:04.598Z,15.17
2022-08-23T05:57:04.600Z,14.89
2022-08-23T05:58:04.596Z,14.89
2022-08-23T05:59:04.604Z,15.17
2022-08-23T06:00:04.598Z,14.89
2022-08-23T06:01:04.625Z,15.06
2022-08-23T06:02:04.609Z,15.06
2022-08-23T06:03:04.636Z,15.17
2022-08-23T06:04:04.605Z,15.17
2022-08-23T06:05:04.613Z,15.17
2022-08-23T06:06:04.604Z,15.17
2022-08-23T06:07:04.605Z,15.06
2022-08-23T06:08:04.608Z,14.61
2022-08-23T06:09:04.602Z,15.28
2022-08-23T06:10:04.605Z,15.28
2022-08-23T06:11:04.608Z,15.44
2022-08-23T06:12:04.624Z,15.17
2022-08-23T06:13:04.610Z,15.44
2022-08-23T06:14:04.690Z,15.17
2022-08-23T06:15:04.604Z,15.61
2022-08-23T06:16:14.559Z,15.44
2022-08-23T06:17:04.612Z,15.78
2022-08-23T06:18:04.610Z,15.61
2022-08-23T06:19:04.608Z,15.61
2022-08-23T06:20:04.630Z,15.61
2022-08-23T06:21:04.614Z,15.61
2022-08-23T06:22:04.612Z,16.06
2022-08-23T06:23:04.613Z,15.89
2022-08-23T06:24:04.609Z,15.89
2022-08-23T06:25:07.114Z,16.06
2022-08-23T06:26:04.609Z,16.22
2022-08-23T06:27:04.621Z,16.56
2022-08-23T06:28:04.611Z,17.17
2022-08-23T06:29:04.688Z,18
2022-08-23T06:30:04.626Z,18.11
2022-08-23T06:31:04.646Z,20.06
2022-08-23T06:32:04.660Z,19.06
2022-08-23T06:33:04.622Z,17.61
2022-08-23T06:34:04.692Z,18.11
2022-08-23T06:35:15.930Z,20.22
2022-08-23T06:36:04.641Z,20.5
2022-08-23T06:37:04.626Z,20.5
2022-08-23T06:38:04.633Z,19.28
2022-08-23T06:39:04.621Z,18.44
2022-08-23T06:40:04.723Z,17.83
2022-08-23T06:41:04.624Z,17.67
2022-08-23T06:42:10.166Z,17.94
2022-08-23T06:43:04.623Z,17.72
2022-08-23T06:44:04.626Z,17.67
2022-08-23T06:45:04.632Z,17.5
2022-08-23T06:46:04.630Z,17.94
2022-08-23T06:47:04.665Z,18.44
2022-08-23T06:48:04.635Z,18.56
2022-08-23T06:49:04.634Z,18.33
2022-08-23T06:50:04.643Z,18.17
2022-08-23T06:51:04.635Z,18.44
2022-08-23T06:52:04.633Z,18.61
2022-08-23T06:53:06.841Z,18.44
2022-08-23T06:54:04.644Z,18.17
2022-08-23T06:55:04.641Z,17.94
2022-08-23T06:56:04.646Z,17.67
2022-08-23T06:57:04.648Z,17.83
2022-08-23T06:58:04.646Z,17.83
2022-08-23T06:59:04.639Z,17.5
2022-08-23T07:00:04.653Z,17.5
2022-08-23T07:01:04.665Z,17.33
2022-08-23T07:02:04.714Z,17.94
2022-08-23T07:03:04.800Z,17.83
2022-08-23T07:04:04.651Z,17.5
2022-08-23T07:05:04.652Z,17.83
2022-08-23T07:06:04.652Z,18.28
2022-08-23T07:07:08.261Z,18.28
2022-08-23T07:08:04.654Z,18.44
2022-08-23T07:09:04.655Z,18.44
2022-08-23T07:10:04.661Z,18.17
2022-08-23T07:11:04.664Z,17.67
2022-08-23T07:12:04.673Z,17.5
2022-08-23T07:13:04.649Z,17.5
2022-08-23T07:14:04.659Z,17.5
2022-08-23T07:15:04.661Z,18.17
2022-08-23T07:16:04.702Z,18.61
2022-08-23T07:17:04.667Z,19.28
2022-08-23T07:18:04.659Z,19.06
2022-08-23T07:19:04.651Z,18.94
2022-08-23T07:20:04.658Z,18.94
2022-08-23T07:21:04.658Z,19.06
2022-08-23T07:22:04.673Z,18.94
2022-08-23T07:23:04.663Z,18.94
2022-08-23T07:24:04.671Z,17.83
2022-08-23T07:25:04.661Z,17.5
2022-08-23T07:26:04.660Z,17.5
2022-08-23T07:27:04.667Z,17.83
2022-08-23T07:28:07.479Z,18.17
2022-08-23T07:29:04.670Z,17.94
2022-08-23T07:30:04.665Z,17.94
2022-08-23T07:31:04.673Z,18.44
2022-08-23T07:32:04.714Z,18.44
2022-08-23T07:33:04.671Z,18.44
2022-08-23T07:34:04.669Z,18.17
2022-08-23T07:35:04.670Z,18.94
2022-08-23T07:36:04.754Z,18.94
2022-08-23T07:37:04.665Z,18.94
2022-08-23T07:38:04.672Z,19.56
2022-08-23T07:39:04.675Z,19.78
2022-08-23T07:40:04.710Z,20.11
2022-08-23T07:41:04.671Z,19.94
2022-08-23T07:42:22.118Z,20.56
2022-08-23T07:43:04.686Z,19.44
2022-08-23T07:44:04.676Z,18.94
2022-08-23T07:45:04.665Z,18.61
2022-08-23T07:46:04.857Z,18.94
2022-08-23T07:47:04.668Z,18.94
2022-08-23T07:48:04.798Z,18.44
2022-08-23T07:49:04.668Z,18.94
2022-08-23T07:50:04.677Z,18.61
2022-08-23T07:51:04.672Z,18.94
2022-08-23T07:52:04.674Z,18.94
2022-08-23T07:53:04.670Z,18.94
2022-08-23T07:54:04.674Z,18.78
2022-08-23T07:55:04.674Z,18.78
2022-08-23T07:56:04.676Z,18.94
2022-08-23T07:57:04.674Z,19.06
2022-08-23T07:58:04.665Z,19.06
2022-08-23T07:59:04.678Z,18.94
2022-08-23T08:00:04.668Z,19.06
2022-08-23T08:01:04.684Z,19.28
2022-08-23T08:02:04.729Z,19.44
2022-08-23T08:03:04.734Z,19.06
2022-08-23T08:04:04.680Z,19.28
2022-08-23T08:05:04.679Z,18.94
2022-08-23T08:06:04.676Z,19.44
2022-08-23T08:07:18.606Z,19.44
2022-08-23T08:08:04.680Z,19.78
2022-08-23T08:09:04.676Z,19.44
2022-08-23T08:10:04.680Z,19.28
2022-08-23T08:11:04.678Z,19.56
2022-08-23T08:12:04.676Z,19.44
2022-08-23T08:13:04.679Z,19.44
2022-08-23T08:14:04.689Z,19.94
2022-08-23T08:15:04.674Z,19.28
2022-08-23T08:16:04.739Z,19.44
2022-08-23T08:17:04.685Z,19.06
2022-08-23T08:18:04.983Z,19.28
2022-08-23T08:19:07.613Z,19.44
2022-08-23T08:20:04.689Z,19.78
2022-08-23T08:21:04.686Z,19.94
2022-08-23T08:22:04.700Z,20.83
2022-08-23T08:23:04.691Z,21.39
2022-08-23T08:24:04.686Z,21.22
2022-08-23T08:25:04.696Z,20.33
2022-08-23T08:26:05.462Z,20.11
2022-08-23T08:27:04.692Z,19.78
2022-08-23T08:28:04.693Z,19.28
2022-08-23T08:29:04.699Z,19.44
2022-08-23T08:30:04.687Z,19.44
2022-08-23T08:31:04.718Z,20.83
2022-08-23T08:32:04.697Z,20.33
2022-08-23T08:33:04.746Z,20.33
2022-08-23T08:34:04.694Z,19.94
2022-08-23T08:35:04.691Z,19.94
2022-08-23T08:36:04.894Z,20.11
2022-08-23T08:37:04.691Z,20.56
2022-08-23T08:38:04.694Z,20.83
2022-08-23T08:39:04.694Z,20.11
2022-08-23T08:40:04.726Z,19.94
2022-08-23T08:41:04.690Z,19.28
2022-08-23T08:42:05.338Z,19.78
2022-08-23T08:43:04.698Z,19.78
2022-08-23T08:44:04.693Z,19.44
2022-08-23T08:45:04.693Z,19.44
2022-08-23T08:46:04.748Z,19.44
2022-08-23T08:47:04.696Z,19.78
2022-08-23T08:48:04.694Z,19.56
2022-08-23T08:49:04.691Z,19.28
2022-08-23T08:50:04.696Z,19.56
2022-08-23T08:51:04.705Z,19.94
2022-08-23T08:52:04.703Z,20.56
2022-08-23T08:53:04.707Z,20.33
2022-08-23T08:54:04.703Z,20.83
2022-08-23T08:55:04.707Z,20.83
2022-08-23T08:56:04.700Z,20.33
2022-08-23T08:57:04.706Z,20.33
2022-08-23T08:58:04.708Z,20.83
2022-08-23T08:59:04.705Z,20.83
2022-08-23T09:00:04.703Z,20.72
2022-08-23T09:01:04.709Z,20.33
2022-08-23T09:02:04.725Z,19.94
2022-08-23T09:03:04.763Z,20.56
2022-08-23T09:04:04.705Z,20.33
2022-08-23T09:05:04.704Z,20.83
2022-08-23T09:06:04.704Z,20.72
2022-08-23T09:07:04.709Z,21
2022-08-23T09:08:04.705Z,21.22
2022-08-23T09:09:04.702Z,20.83
2022-08-23T09:10:04.701Z,21.72
2022-08-23T09:11:04.699Z,22.22
2022-08-23T09:12:04.703Z,22.39
2022-08-23T09:13:04.693Z,21.72
2022-08-23T09:14:04.705Z,21
2022-08-23T09:15:04.703Z,21.39
2022-08-23T09:16:04.709Z,20.83
2022-08-23T09:17:05.458Z,20.56
2022-08-23T09:18:04.700Z,21
2022-08-23T09:19:04.721Z,21.56
2022-08-23T09:20:04.707Z,21.56
2022-08-23T09:21:04.708Z,21.89
2022-08-23T09:22:04.698Z,22.06
2022-08-23T09:23:04.707Z,22.94
2022-08-23T09:24:04.711Z,22.56
2022-08-23T09:25:04.708Z,22.39
2022-08-23T09:26:04.733Z,21.56
2022-08-23T09:27:04.706Z,21.56
2022-08-23T09:28:04.707Z,22.22
2022-08-23T09:29:04.711Z,22.94
2022-08-23T09:30:04.709Z,22.39
2022-08-23T09:31:04.736Z,22.39
2022-08-23T09:32:04.715Z,22.56
2022-08-23T09:33:04.708Z,21.89
2022-08-23T09:34:04.857Z,21.39
2022-08-23T09:35:04.722Z,20.83
2022-08-23T09:36:04.711Z,20.83
2022-08-23T09:37:04.706Z,20.72
2022-08-23T09:38:04.721Z,21
2022-08-23T09:39:04.718Z,20.72
2022-08-23T09:40:04.738Z,20.5
2022-08-23T09:41:04.719Z,20.83
2022-08-23T09:42:04.717Z,20.72
2022-08-23T09:43:04.711Z,20.72
2022-08-23T09:44:04.719Z,21.06
2022-08-23T09:45:04.714Z,21.06
2022-08-23T09:46:04.777Z,20.39
2022-08-23T09:47:04.719Z,20.56
2022-08-23T09:48:04.723Z,21.06
2022-08-23T09:49:04.718Z,21.06
2022-08-23T09:50:04.722Z,21.06
2022-08-23T09:51:04.716Z,20.83
2022-08-23T09:52:04.721Z,20.83
2022-08-23T09:53:04.956Z,20.56
2022-08-23T09:54:04.728Z,20.39
2022-08-23T09:55:04.729Z,20.22
2022-08-23T09:56:04.733Z,20.56
2022-08-23T09:57:04.739Z,20.83
2022-08-23T09:58:04.730Z,21.06
2022-08-23T09:59:04.733Z,21.06
2022-08-23T10:00:04.728Z,20.83
2022-08-23T10:01:04.732Z,20.72
2022-08-23T10:02:04.782Z,20.72
2022-08-23T10:03:04.727Z,20.56
2022-08-23T10:04:04.730Z,20.72
2022-08-23T10:05:04.778Z,20.72
2022-08-23T10:06:04.732Z,20.72
2022-08-23T10:07:04.735Z,20.56
2022-08-23T10:08:07.697Z,20.56
2022-08-23T10:09:04.740Z,20.22
2022-08-23T10:10:04.734Z,21.06
2022-08-23T10:11:04.777Z,21.06
2022-08-23T10:12:04.731Z,20.72
2022-08-23T10:13:04.734Z,21.06
2022-08-23T10:14:04.740Z,21.06
2022-08-23T10:15:04.735Z,21.06
2022-08-23T10:16:04.819Z,21.06
2022-08-23T10:17:04.744Z,21.22
2022-08-23T10:18:04.742Z,20.83
2022-08-23T10:19:04.742Z,21.06
2022-08-23T10:20:04.747Z,20.72
2022-08-23T10:21:04.748Z,21.06
2022-08-23T10:22:04.744Z,21.22
2022-08-23T10:23:04.744Z,21.39
2022-08-23T10:24:04.746Z,21.56
2022-08-23T10:25:05.666Z,20.83
2022-08-23T10:26:04.749Z,21.06
2022-08-23T10:27:04.746Z,20.83
2022-08-23T10:28:04.745Z,21.06
2022-08-23T10:29:04.751Z,20.72
2022-08-23T10:30:04.753Z,20.83
2022-08-23T10:31:04.773Z,21.06
2022-08-23T10:32:04.752Z,21.06
2022-08-23T10:33:04.755Z,21.22
2022-08-23T10:34:04.772Z,21.22
2022-08-23T10:35:04.760Z,21.22
2022-08-23T10:36:04.758Z,21.56
2022-08-23T10:37:04.761Z,21.56
2022-08-23T10:38:04.763Z,21.89
2022-08-23T10:39:04.759Z,21.89
2022-08-23T10:40:04.843Z,22.39
2022-08-23T10:41:04.762Z,22.06
2022-08-23T10:42:04.764Z,21.56
2022-08-23T10:43:04.765Z,22.06
2022-08-23T10:44:04.776Z,21.72
2022-08-23T10:45:04.762Z,22.22
2022-08-23T10:46:04.803Z,22.39
2022-08-23T10:47:04.771Z,22.06
2022-08-23T10:48:04.770Z,21.39
2022-08-23T10:49:04.768Z,21.89
2022-08-23T10:50:04.800Z,21.56
2022-08-23T10:51:04.773Z,21.72
2022-08-23T10:52:04.776Z,22.06
2022-08-23T10:53:04.776Z,22.39
2022-08-23T10:54:04.774Z,22.61
2022-08-23T10:55:04.778Z,23.11
2022-08-23T10:56:04.773Z,23.11
2022-08-23T10:57:04.776Z,23.44
2022-08-23T10:58:04.786Z,23.44
2022-08-23T10:59:04.776Z,23.11
2022-08-23T11:00:04.780Z,22.61
2022-08-23T11:01:04.830Z,22.61
2022-08-23T11:02:04.784Z,22.06
2022-08-23T11:03:04.875Z,22.06
2022-08-23T11:04:04.780Z,21.89
2022-08-23T11:05:04.797Z,22.22
2022-08-23T11:06:04.793Z,22.22
2022-08-23T11:07:04.786Z,22.39
2022-08-23T11:08:04.783Z,22.22
2022-08-23T11:09:04.784Z,22.39
2022-08-23T11:10:04.792Z,22.61
2022-08-23T11:11:04.791Z,22.22
2022-08-23T11:12:05.618Z,22.61
2022-08-23T11:13:04.787Z,22.22
2022-08-23T11:14:04.791Z,22.22
2022-08-23T11:15:04.810Z,21.89
2022-08-23T11:16:04.876Z,21.72
2022-08-23T11:17:04.788Z,21.89
2022-08-23T11:18:04.790Z,21.89
2022-08-23T11:19:04.793Z,22.22
2022-08-23T11:20:04.790Z,22.39
2022-08-23T11:21:04.792Z,22.94
2022-08-23T11:22:04.800Z,22.78
2022-08-23T11:23:04.796Z,22.61
2022-08-23T11:24:04.803Z,22.78
2022-08-23T11:25:04.800Z,22.94
2022-08-23T11:26:04.807Z,22.94
2022-08-23T11:27:06.510Z,23.44
2022-08-23T11:28:04.807Z,23.67
2022-08-23T11:29:04.807Z,24
2022-08-23T11:30:04.807Z,24
2022-08-23T11:31:04.886Z,23.67
2022-08-23T11:32:04.812Z,23.11
2022-08-23T11:33:04.808Z,22.94
2022-08-23T11:34:04.811Z,22.78
2022-08-23T11:35:04.807Z,22.61
2022-08-23T11:36:04.812Z,22.61
2022-08-23T11:37:04.815Z,23.11
2022-08-23T11:38:05.322Z,23.28
2022-08-23T11:39:04.805Z,23.11
2022-08-23T11:40:04.847Z,23.28
2022-08-23T11:41:04.814Z,24.33
2022-08-23T11:42:04.824Z,24.67
2022-08-23T11:43:04.819Z,24.67
2022-08-23T11:44:04.815Z,25.78
2022-08-23T11:45:04.818Z,25.78
2022-08-23T11:46:04.846Z,24.33
2022-08-23T11:47:04.815Z,24.67
2022-08-23T11:48:04.822Z,24.67
2022-08-23T11:49:04.825Z,25.06
2022-08-23T11:50:04.818Z,25.44
2022-08-23T11:51:04.825Z,25.78
2022-08-23T11:52:04.821Z,25.22
2022-08-23T11:53:04.825Z,24.33
2022-08-23T11:54:04.820Z,24
2022-08-23T11:55:04.820Z,24
2022-08-23T11:56:04.821Z,24
2022-08-23T11:57:04.831Z,24.5
2022-08-23T11:58:04.821Z,24.5
2022-08-23T11:59:07.961Z,24
2022-08-23T12:00:04.823Z,23.83
2022-08-23T12:01:04.827Z,24.17
2022-08-23T12:02:04.833Z,24.33
2022-08-23T12:03:04.944Z,24.67
2022-08-23T12:04:04.950Z,24.5
2022-08-23T12:05:06.720Z,24
2022-08-23T12:06:04.824Z,23.83
2022-08-23T12:07:04.828Z,23.83
2022-08-23T12:08:05.091Z,25.22
2022-08-23T12:09:04.826Z,25.06
2022-08-23T12:10:04.824Z,25.22
2022-08-23T12:11:05.123Z,24.17
2022-08-23T12:12:04.829Z,24.33
2022-08-23T12:13:04.834Z,24.17
2022-08-23T12:14:04.830Z,24.89
2022-08-23T12:15:04.823Z,25.22
2022-08-23T12:16:04.909Z,24.83
2022-08-23T12:17:04.848Z,24.78
2022-08-23T12:18:04.826Z,24.67
2022-08-23T12:19:04.831Z,25.06
2022-08-23T12:20:04.823Z,25.61
2022-08-23T12:21:04.837Z,25.78
2022-08-23T12:22:04.837Z,25.22
2022-08-23T12:23:04.838Z,26.33
2022-08-23T12:24:04.840Z,26
2022-08-23T12:25:04.835Z,26
2022-08-23T12:26:04.832Z,25.61
2022-08-23T12:27:04.836Z,26.56
2022-08-23T12:28:04.840Z,25.22
2022-08-23T12:29:04.840Z,24.89
2022-08-23T12:30:04.840Z,24.89
2022-08-23T12:31:07.644Z,25.06
2022-08-23T12:32:04.843Z,24.67
2022-08-23T12:33:04.839Z,24.33
2022-08-23T12:34:04.871Z,24.33
2022-08-23T12:35:04.842Z,24.67
2022-08-23T12:36:04.838Z,24.17
2022-08-23T12:37:08.918Z,23.67
2022-08-23T12:38:04.842Z,24.17
2022-08-23T12:39:04.841Z,24.89
2022-08-23T12:40:04.863Z,24
2022-08-23T12:41:04.842Z,24.33
2022-08-23T12:42:04.837Z,25.22
2022-08-23T12:43:04.844Z,24
2022-08-23T12:44:04.858Z,23.83
2022-08-23T12:45:05.225Z,24.67
2022-08-23T12:46:04.888Z,24
2022-08-23T12:47:04.839Z,23.28
2022-08-23T12:48:04.840Z,22.94
2022-08-23T12:49:04.847Z,23.44
2022-08-23T12:50:04.840Z,23.83
2022-08-23T12:51:04.845Z,23.83
2022-08-23T12:52:04.848Z,23.28
2022-08-23T12:53:04.844Z,23.28
2022-08-23T12:54:04.857Z,23.83
2022-08-23T12:55:04.850Z,24
2022-08-23T12:56:04.846Z,23.67
2022-08-23T12:57:04.848Z,23.11
2022-08-23T12:58:04.844Z,23.83
2022-08-23T12:59:05.042Z,23.44